createdAt,value
2019-02-04T00:00:05.581Z,-3.66
2019-02-04T00:01:13.615Z,-3.85
2019-02-04T00:02:21.679Z,-3.91
2019-02-04T00:03:29.712Z,-4.10
2019-02-04T00:04:37.777Z,-4.24
2019-02-04T00:05:45.840Z,-4.32
2019-02-04T00:06:53.877Z,-4.40
2019-02-04T00:08:01.930Z,-4.46
2019-02-04T00:09:10.016Z,-4.56
2019-02-04T00:10:18.054Z,-4.57
2019-02-04T00:11:26.077Z,-4.74
2019-02-04T00:12:34.116Z,-4.74
2019-02-04T00:13:42.199Z,-4.86
2019-02-04T00:14:50.257Z,-4.83
2019-02-04T00:15:58.278Z,-4.87
2019-02-04T00:17:06.320Z,-4.89
2019-02-04T00:18:14.406Z,-4.96
2019-02-04T00:19:22.453Z,-5.00
2019-02-04T00:20:30.484Z,-5.04
2019-02-04T00:21:38.523Z,-5.11
2019-02-04T00:22:46.590Z,-5.19
2019-02-04T00:23:54.628Z,-5.19
2019-02-04T00:25:02.688Z,-5.18
2019-02-04T00:26:10.734Z,-5.26
2019-02-04T00:27:18.803Z,-5.18
2019-02-04T00:28:26.820Z,-5.23
2019-02-04T00:29:34.880Z,-5.19
2019-02-04T00:30:42.979Z,-5.22
2019-02-04T00:31:51.139Z,-5.30
2019-02-04T00:32:59.040Z,-5.26
2019-02-04T00:34:07.088Z,-5.25
2019-02-04T00:35:15.135Z,-5.27
2019-02-04T00:36:23.192Z,-5.37
2019-02-04T00:37:31.260Z,-5.30
2019-02-04T00:38:39.280Z,-5.35
2019-02-04T00:39:47.358Z,-5.27
2019-02-04T00:40:55.387Z,-5.30
2019-02-04T00:42:03.427Z,-5.30
2019-02-04T00:43:11.479Z,-5.23
2019-02-04T00:44:19.540Z,-5.33
2019-02-04T00:45:27.619Z,-5.25
2019-02-04T00:46:35.665Z,-5.19
2019-02-04T00:47:43.692Z,-5.23
2019-02-04T00:48:51.763Z,-5.17
2019-02-04T00:49:59.786Z,-5.19
2019-02-04T00:51:07.847Z,-5.08
2019-02-04T00:52:15.899Z,-4.99
2019-02-04T00:53:23.983Z,-5.00
2019-02-04T00:54:32.010Z,-4.93
2019-02-04T00:55:40.077Z,-4.79
2019-02-04T00:56:48.100Z,-4.83
2019-02-04T00:57:56.143Z,-4.61
2019-02-04T00:59:04.203Z,-4.57
2019-02-04T01:00:12.258Z,-4.46
2019-02-04T01:01:20.322Z,-4.38
2019-02-04T01:02:28.380Z,-4.30
2019-02-04T01:03:36.430Z,-4.21
2019-02-04T01:04:44.471Z,-4.20
2019-02-04T01:05:52.498Z,-4.11
2019-02-04T01:07:00.578Z,-4.17
2019-02-04T01:08:08.613Z,-4.15
2019-02-04T01:09:16.678Z,-4.17
2019-02-04T01:10:24.699Z,-4.10
2019-02-04T01:11:32.759Z,-4.04
2019-02-04T01:12:40.809Z,-4.01
2019-02-04T01:13:48.863Z,-3.97
2019-02-04T01:14:56.884Z,-4.04
2019-02-04T01:16:04.948Z,-4.03
2019-02-04T01:17:13.031Z,-4.04
2019-02-04T01:18:21.032Z,-3.94
2019-02-04T01:19:29.117Z,-3.96
2019-02-04T01:20:37.166Z,-4.04
2019-02-04T01:21:45.206Z,-4.07
2019-02-04T01:22:53.262Z,-4.03
2019-02-04T01:24:01.293Z,-3.93
2019-02-04T01:25:09.364Z,-4.01
2019-02-04T01:26:17.399Z,-3.94
2019-02-04T01:27:25.671Z,-4.07
2019-02-04T01:28:33.521Z,-4.15
2019-02-04T01:29:41.571Z,-4.01
2019-02-04T01:30:49.612Z,-4.14
2019-02-04T01:31:57.662Z,-4.22
2019-02-04T01:33:05.715Z,-4.17
2019-02-04T01:34:13.754Z,-4.36
2019-02-04T01:35:21.816Z,-4.40
2019-02-04T01:36:29.863Z,-4.46
2019-02-04T01:37:37.923Z,-4.54
2019-02-04T01:38:46.161Z,-4.67
2019-02-04T01:39:53.994Z,-4.65
2019-02-04T01:41:02.091Z,-4.71
2019-02-04T01:42:10.119Z,-4.71
2019-02-04T01:43:18.161Z,-4.79
2019-02-04T01:44:26.245Z,-4.79
2019-02-04T01:45:34.283Z,-4.85
2019-02-04T01:46:42.304Z,-4.97
2019-02-04T01:47:50.382Z,-4.92
2019-02-04T01:48:58.391Z,-4.96
2019-02-04T01:50:06.464Z,-5.07
2019-02-04T01:51:14.521Z,-5.17
2019-02-04T01:52:22.563Z,-5.35
2019-02-04T01:53:30.628Z,-5.36
2019-02-04T01:54:38.673Z,-5.41
2019-02-04T01:55:46.704Z,-5.53
2019-02-04T01:56:54.779Z,-5.62
2019-02-04T01:58:02.836Z,-5.71
2019-02-04T01:59:10.888Z,-5.76
2019-02-04T02:00:18.928Z,-5.82
2019-02-04T02:01:26.975Z,-5.94
2019-02-04T02:02:35.019Z,-5.89
2019-02-04T02:03:43.062Z,-6.04
2019-02-04T02:04:51.090Z,-6.07
2019-02-04T02:05:59.175Z,-6.16
2019-02-04T02:07:07.221Z,-6.10
2019-02-04T02:08:15.258Z,-6.21
2019-02-04T02:09:23.324Z,-6.21
2019-02-04T02:10:31.515Z,-6.19
2019-02-04T02:11:39.396Z,-6.34
2019-02-04T02:12:47.473Z,-6.32
2019-02-04T02:13:55.524Z,-6.46
2019-02-04T02:15:03.588Z,-6.50
2019-02-04T02:16:11.660Z,-6.58
2019-02-04T02:17:26.186Z,-6.55
2019-02-04T02:18:27.728Z,-6.77
2019-02-04T02:19:35.746Z,-6.87
2019-02-04T02:20:43.804Z,-7.00
2019-02-04T02:21:51.835Z,-7.13
2019-02-04T02:22:59.919Z,-7.08
2019-02-04T02:24:07.962Z,-7.11
2019-02-04T02:25:16.012Z,-7.21
2019-02-04T02:26:24.048Z,-7.22
2019-02-04T02:27:32.103Z,-7.22
2019-02-04T02:28:40.184Z,-7.26
2019-02-04T02:29:48.225Z,-7.18
2019-02-04T02:30:56.271Z,-7.26
2019-02-04T02:32:04.330Z,-7.25
2019-02-04T02:33:12.348Z,-7.23
2019-02-04T02:34:20.390Z,-7.26
2019-02-04T02:35:28.466Z,-7.23
2019-02-04T02:36:36.509Z,-7.15
2019-02-04T02:37:44.578Z,-7.16
2019-02-04T02:38:52.598Z,-7.18
2019-02-04T02:40:00.674Z,-7.16
2019-02-04T02:41:08.860Z,-7.12
2019-02-04T02:42:16.756Z,-7.12
2019-02-04T02:43:24.791Z,-7.16
2019-02-04T02:44:32.849Z,-7.02
2019-02-04T02:45:40.898Z,-7.01
2019-02-04T02:46:48.955Z,-6.98
2019-02-04T02:47:56.995Z,-7.00
2019-02-04T02:49:05.028Z,-6.98
2019-02-04T02:50:13.084Z,-6.94
2019-02-04T02:51:21.186Z,-6.97
2019-02-04T02:52:29.203Z,-7.08
2019-02-04T02:53:37.338Z,-7.00
2019-02-04T02:54:45.332Z,-7.08
2019-02-04T02:55:53.349Z,-7.08
2019-02-04T02:57:01.409Z,-7.05
2019-02-04T02:58:09.433Z,-7.07
2019-02-04T02:59:17.497Z,-7.08
2019-02-04T03:00:25.592Z,-7.11
2019-02-04T03:01:33.608Z,-7.07
2019-02-04T03:02:41.673Z,-7.22
2019-02-04T03:03:49.674Z,-7.16
2019-02-04T03:04:57.763Z,-7.07
2019-02-04T03:06:05.771Z,-7.07
2019-02-04T03:07:13.830Z,-7.12
2019-02-04T03:08:21.874Z,-7.15
2019-02-04T03:09:29.933Z,-7.16
2019-02-04T03:10:37.964Z,-7.21
2019-02-04T03:11:46.023Z,-7.19
2019-02-04T03:12:54.086Z,-7.13
2019-02-04T03:14:02.133Z,-7.22
2019-02-04T03:15:10.187Z,-7.22
2019-02-04T03:16:18.210Z,-7.19
2019-02-04T03:17:26.289Z,-7.15
2019-02-04T03:18:34.325Z,-7.19
2019-02-04T03:19:42.371Z,-7.21
2019-02-04T03:20:50.425Z,-7.19
2019-02-04T03:21:58.447Z,-7.18
2019-02-04T03:23:06.534Z,-7.16
2019-02-04T03:24:14.563Z,-7.12
2019-02-04T03:25:22.591Z,-7.02
2019-02-04T03:26:30.692Z,-6.98
2019-02-04T03:27:38.759Z,-6.92
2019-02-04T03:28:46.753Z,-6.89
2019-02-04T03:29:54.790Z,-7.02
2019-02-04T03:31:02.885Z,-7.04
2019-02-04T03:32:10.892Z,-7.11
2019-02-04T03:33:18.960Z,-7.05
2019-02-04T03:34:26.975Z,-7.00
2019-02-04T03:35:35.032Z,-6.91
2019-02-04T03:36:43.105Z,-6.84
2019-02-04T03:37:52.248Z,-6.86
2019-02-04T03:38:59.203Z,-6.80
2019-02-04T03:40:07.215Z,-6.91
2019-02-04T03:41:15.292Z,-6.74
2019-02-04T03:42:23.330Z,-6.74
2019-02-04T03:43:31.375Z,-6.71
2019-02-04T03:44:39.429Z,-6.73
2019-02-04T03:45:47.497Z,-6.68
2019-02-04T03:46:55.541Z,-6.69
2019-02-04T03:48:06.742Z,-6.69
2019-02-04T03:49:11.637Z,-6.76
2019-02-04T03:50:19.671Z,-6.69
2019-02-04T03:51:27.717Z,-6.73
2019-02-04T03:52:35.794Z,-6.73
2019-02-04T03:53:43.835Z,-6.86
2019-02-04T03:54:51.883Z,-6.87
2019-02-04T03:55:59.922Z,-6.89
2019-02-04T03:57:07.984Z,-6.74
2019-02-04T03:58:15.995Z,-6.76
2019-02-04T03:59:24.072Z,-6.77
2019-02-04T04:00:32.116Z,-6.74
2019-02-04T04:01:40.204Z,-6.77
2019-02-04T04:02:48.231Z,-6.79
2019-02-04T04:03:56.261Z,-6.82
2019-02-04T04:05:04.299Z,-6.82
2019-02-04T04:06:12.361Z,-6.79
2019-02-04T04:07:20.401Z,-6.83
2019-02-04T04:08:28.459Z,-6.71
2019-02-04T04:09:36.495Z,-6.76
2019-02-04T04:10:44.565Z,-6.76
2019-02-04T04:11:52.593Z,-6.77
2019-02-04T04:13:00.672Z,-6.83
2019-02-04T04:14:08.700Z,-6.87
2019-02-04T04:15:16.751Z,-6.89
2019-02-04T04:16:24.817Z,-6.91
2019-02-04T04:17:32.832Z,-6.98
2019-02-04T04:18:40.892Z,-7.12
2019-02-04T04:19:48.945Z,-7.05
2019-02-04T04:20:57.002Z,-7.22
2019-02-04T04:22:05.054Z,-7.25
2019-02-04T04:23:13.088Z,-7.26
2019-02-04T04:24:21.151Z,-7.26
2019-02-04T04:25:29.232Z,-7.16
2019-02-04T04:26:37.267Z,-7.25
2019-02-04T04:27:45.333Z,-7.21
2019-02-04T04:28:53.319Z,-7.23
2019-02-04T04:30:01.385Z,-7.34
2019-02-04T04:31:09.442Z,-7.23
2019-02-04T04:32:17.488Z,-7.33
2019-02-04T04:33:25.537Z,-7.34
2019-02-04T04:34:33.580Z,-7.22
2019-02-04T04:35:41.676Z,-7.43
2019-02-04T04:36:49.703Z,-7.40
2019-02-04T04:37:57.738Z,-7.40
2019-02-04T04:39:05.790Z,-7.23
2019-02-04T04:40:13.802Z,-7.41
2019-02-04T04:41:21.875Z,-7.25
2019-02-04T04:42:29.908Z,-7.26
2019-02-04T04:43:37.983Z,-7.33
2019-02-04T04:44:46.023Z,-7.31
2019-02-04T04:45:54.029Z,-7.33
2019-02-04T04:47:02.112Z,-7.23
2019-02-04T04:48:10.150Z,-7.22
2019-02-04T04:49:18.232Z,-7.29
2019-02-04T04:50:26.363Z,-7.23
2019-02-04T04:51:34.359Z,-7.18
2019-02-04T04:52:42.407Z,-7.21
2019-02-04T04:53:50.403Z,-7.19
2019-02-04T04:54:58.466Z,-7.22
2019-02-04T04:56:06.502Z,-7.23
2019-02-04T04:57:14.548Z,-7.25
2019-02-04T04:58:22.587Z,-7.36
2019-02-04T04:59:30.659Z,-7.46
2019-02-04T05:00:38.683Z,-7.26
2019-02-04T05:01:46.753Z,-7.31
2019-02-04T05:02:54.786Z,-7.33
2019-02-04T05:04:02.839Z,-7.21
2019-02-04T05:05:10.902Z,-7.37
2019-02-04T05:06:18.935Z,-7.25
2019-02-04T05:07:27.004Z,-7.25
2019-02-04T05:08:35.040Z,-7.22
2019-02-04T05:09:43.104Z,-7.25
2019-02-04T05:10:51.132Z,-7.16
2019-02-04T05:11:59.183Z,-7.18
2019-02-04T05:13:07.229Z,-7.19
2019-02-04T05:14:15.282Z,-7.18
2019-02-04T05:15:23.368Z,-7.16
2019-02-04T05:16:31.376Z,-7.18
2019-02-04T05:17:39.421Z,-7.18
2019-02-04T05:18:47.474Z,-7.07
2019-02-04T05:19:55.520Z,-7.08
2019-02-04T05:21:03.582Z,-7.07
2019-02-04T05:22:11.609Z,-7.07
2019-02-04T05:23:19.650Z,-7.02
2019-02-04T05:24:27.710Z,-7.11
2019-02-04T05:25:35.774Z,-7.18
2019-02-04T05:26:43.792Z,-7.30
2019-02-04T05:27:51.899Z,-7.39
2019-02-04T05:28:59.930Z,-7.43
2019-02-04T05:30:07.957Z,-7.50
2019-02-04T05:31:15.983Z,-7.46
2019-02-04T05:32:24.077Z,-7.52
2019-02-04T05:33:32.088Z,-7.57
2019-02-04T05:34:40.172Z,-7.76
2019-02-04T05:35:48.196Z,-7.71
2019-02-04T05:36:56.257Z,-7.87
2019-02-04T05:38:04.283Z,-7.87
2019-02-04T05:39:12.378Z,-7.89
2019-02-04T05:40:20.448Z,-7.97
2019-02-04T05:41:28.447Z,-8.09
2019-02-04T05:42:36.489Z,-8.06
2019-02-04T05:43:44.530Z,-8.09
2019-02-04T05:44:52.592Z,-8.09
2019-02-04T05:46:00.621Z,-8.02
2019-02-04T05:47:08.696Z,-8.02
2019-02-04T05:48:16.739Z,-8.09
2019-02-04T05:49:24.782Z,-8.12
2019-02-04T05:50:32.873Z,-8.13
2019-02-04T05:51:40.913Z,-8.16
2019-02-04T05:52:48.967Z,-8.11
2019-02-04T05:53:56.966Z,-8.12
2019-02-04T05:55:05.009Z,-8.13
2019-02-04T05:56:13.046Z,-8.16
2019-02-04T05:57:21.120Z,-8.08
2019-02-04T05:58:29.164Z,-8.08
2019-02-04T05:59:37.210Z,-8.02
2019-02-04T06:00:45.258Z,-8.02
2019-02-04T06:01:53.310Z,-7.99
2019-02-04T06:03:01.382Z,-7.90
2019-02-04T06:04:09.451Z,-7.93
2019-02-04T06:05:17.467Z,-7.87
2019-02-04T06:06:25.870Z,-7.86
2019-02-04T06:07:33.567Z,-8.06
2019-02-04T06:08:41.589Z,-8.01
2019-02-04T06:09:49.648Z,-8.01
2019-02-04T06:10:57.705Z,-8.01
2019-02-04T06:12:05.770Z,-8.01
2019-02-04T06:13:13.777Z,-8.12
2019-02-04T06:14:21.868Z,-8.11
2019-02-04T06:15:29.867Z,-8.12
2019-02-04T06:16:37.960Z,-8.08
2019-02-04T06:17:45.986Z,-8.11
2019-02-04T06:19:00.655Z,-8.11
2019-02-04T06:20:03.020Z,-8.15
2019-02-04T06:21:10.136Z,-8.12
2019-02-04T06:22:18.179Z,-8.15
2019-02-04T06:23:26.260Z,-8.21
2019-02-04T06:24:34.259Z,-8.29
2019-02-04T06:25:42.333Z,-8.29
2019-02-04T06:26:50.380Z,-8.37
2019-02-04T06:27:58.442Z,-8.31
2019-02-04T06:29:06.490Z,-8.29
2019-02-04T06:30:14.515Z,-8.27
2019-02-04T06:31:22.557Z,-8.24
2019-02-04T06:32:30.617Z,-8.23
2019-02-04T06:33:38.657Z,-8.19
2019-02-04T06:34:46.702Z,-8.19
2019-02-04T06:35:54.754Z,-8.18
2019-02-04T06:37:02.800Z,-8.24
2019-02-04T06:38:10.861Z,-8.23
2019-02-04T06:39:18.935Z,-8.18
2019-02-04T06:40:26.947Z,-8.15
2019-02-04T06:41:35.011Z,-8.16
2019-02-04T06:42:43.064Z,-8.06
2019-02-04T06:43:51.078Z,-8.11
2019-02-04T06:44:59.163Z,-8.01
2019-02-04T06:46:07.189Z,-8.02
2019-02-04T06:47:15.241Z,-7.90
2019-02-04T06:48:23.297Z,-7.89
2019-02-04T06:49:31.341Z,-7.78
2019-02-04T06:50:39.378Z,-7.72
2019-02-04T06:51:47.450Z,-7.73
2019-02-04T06:52:55.536Z,-7.76
2019-02-04T06:54:03.536Z,-7.71
2019-02-04T06:55:11.580Z,-7.78
2019-02-04T06:56:19.634Z,-7.72
2019-02-04T06:57:27.688Z,-7.79
2019-02-04T06:58:35.747Z,-7.83
2019-02-04T06:59:43.761Z,-7.79
2019-02-04T07:00:51.820Z,-7.75
2019-02-04T07:01:59.864Z,-7.62
2019-02-04T07:03:07.947Z,-7.62
2019-02-04T07:04:15.990Z,-7.72
2019-02-04T07:05:23.975Z,-7.76
2019-02-04T07:06:32.066Z,-7.71
2019-02-04T07:07:40.088Z,-7.79
2019-02-04T07:08:48.200Z,-7.86
2019-02-04T07:09:56.184Z,-7.89
2019-02-04T07:11:04.237Z,-7.78
2019-02-04T07:12:12.309Z,-7.83
2019-02-04T07:13:20.353Z,-7.87
2019-02-04T07:14:28.398Z,-7.83
2019-02-04T07:15:36.523Z,-7.86
2019-02-04T07:16:44.517Z,-7.83
2019-02-04T07:17:52.564Z,-7.71
2019-02-04T07:19:00.595Z,-7.71
2019-02-04T07:20:08.644Z,-7.71
2019-02-04T07:21:16.681Z,-7.76
2019-02-04T07:22:24.708Z,-7.76
2019-02-04T07:23:32.780Z,-7.75
2019-02-04T07:24:42.588Z,-7.61
2019-02-04T07:25:48.899Z,-7.62
2019-02-04T07:26:56.914Z,-7.48
2019-02-04T07:28:04.987Z,-7.54
2019-02-04T07:29:13.041Z,-7.54
2019-02-04T07:30:21.083Z,-7.50
2019-02-04T07:31:29.119Z,-7.46
2019-02-04T07:32:37.174Z,-7.30
2019-02-04T07:33:47.324Z,-7.40
2019-02-04T07:34:53.269Z,-7.23
2019-02-04T07:36:03.321Z,-7.22
2019-02-04T07:37:09.379Z,-7.08
2019-02-04T07:38:17.410Z,-7.11
2019-02-04T07:39:25.495Z,-6.98
2019-02-04T07:40:33.720Z,-6.89
2019-02-04T07:41:41.568Z,-6.87
2019-02-04T07:42:49.594Z,-6.87
2019-02-04T07:43:57.660Z,-6.84
2019-02-04T07:45:05.690Z,-6.71
2019-02-04T07:46:13.753Z,-6.74
2019-02-04T07:47:21.833Z,-6.66
2019-02-04T07:48:29.857Z,-6.58
2019-02-04T07:49:37.882Z,-6.59
2019-02-04T07:50:47.075Z,-6.55
2019-02-04T07:51:54.010Z,-6.49
2019-02-04T07:53:02.154Z,-6.44
2019-02-04T07:54:10.155Z,-6.34
2019-02-04T07:55:18.160Z,-6.31
2019-02-04T07:56:26.456Z,-6.21
2019-02-04T07:57:34.515Z,-6.15
2019-02-04T07:58:42.289Z,-5.79
2019-02-04T07:59:50.355Z,-5.68
2019-02-04T08:00:58.384Z,-5.74
2019-02-04T08:02:06.446Z,-4.75
2019-02-04T08:03:15.077Z,-4.75
2019-02-04T08:04:23.539Z,-4.78
2019-02-04T08:05:30.861Z,-4.86
2019-02-04T08:06:38.913Z,-4.78
2019-02-04T08:07:47.384Z,-4.67
2019-02-04T08:08:55.344Z,-4.57
2019-02-04T08:10:03.384Z,-4.56
2019-02-04T08:11:11.097Z,-4.53
2019-02-04T08:12:18.885Z,-4.46
2019-02-04T08:13:27.572Z,-4.32
2019-02-04T08:14:35.105Z,-4.33
2019-02-04T08:15:43.041Z,-4.24
2019-02-04T08:16:51.090Z,-4.17
2019-02-04T08:17:59.142Z,-3.96
2019-02-04T08:19:07.223Z,-3.94
2019-02-04T08:20:15.232Z,-3.90
2019-02-04T08:21:23.282Z,-3.75
2019-02-04T08:22:31.342Z,-3.71
2019-02-04T08:23:39.382Z,-3.67
2019-02-04T08:24:47.422Z,-3.57
2019-02-04T08:25:55.486Z,-3.60
2019-02-04T08:27:03.516Z,-3.46
2019-02-04T08:28:11.610Z,-3.21
2019-02-04T08:29:19.628Z,-3.12
2019-02-04T08:30:27.686Z,-3.21
2019-02-04T08:31:35.832Z,-3.14
2019-02-04T08:32:43.774Z,-2.91
2019-02-04T08:33:51.833Z,-2.94
2019-02-04T08:34:59.856Z,-2.81
2019-02-04T08:36:07.925Z,-2.84
2019-02-04T08:37:16.244Z,-2.85
2019-02-04T08:38:24.033Z,-2.61
2019-02-04T08:39:32.096Z,-2.52
2019-02-04T08:40:40.131Z,-2.48
2019-02-04T08:41:48.226Z,-2.37
2019-02-04T08:42:56.248Z,-2.39
2019-02-04T08:44:04.261Z,-2.21
2019-02-04T08:45:12.329Z,-2.21
2019-02-04T08:46:21.571Z,-2.10
2019-02-04T08:47:28.420Z,-2.10
2019-02-04T08:48:36.492Z,-1.95
2019-02-04T08:49:44.544Z,-1.98
2019-02-04T08:50:52.601Z,-1.80
2019-02-04T08:52:00.655Z,-1.87
2019-02-04T08:53:08.709Z,-1.74
2019-02-04T08:54:17.322Z,-1.64
2019-02-04T08:55:25.044Z,-1.59
2019-02-04T08:56:32.862Z,-1.49
2019-02-04T08:57:41.022Z,-1.40
2019-02-04T08:58:48.957Z,-1.40
2019-02-04T08:59:57.014Z,-1.37
2019-02-04T09:01:05.049Z,-1.33
2019-02-04T09:02:13.092Z,-1.23
2019-02-04T09:03:21.182Z,-1.16
2019-02-04T09:04:29.222Z,-1.12
2019-02-04T09:05:37.533Z,-1.07
2019-02-04T09:06:45.316Z,-1.10
2019-02-04T09:07:53.361Z,-1.09
2019-02-04T09:09:01.455Z,-0.89
2019-02-04T09:10:09.483Z,-0.83
2019-02-04T09:11:17.527Z,-0.82
2019-02-04T09:12:25.581Z,-0.82
2019-02-04T09:13:33.634Z,-0.78
2019-02-04T09:14:41.678Z,-0.73
2019-02-04T09:15:49.742Z,-0.75
2019-02-04T09:16:57.761Z,-0.79
2019-02-04T09:18:05.860Z,-0.72
2019-02-04T09:19:13.888Z,-0.64
2019-02-04T09:20:22.158Z,-0.46
2019-02-04T09:21:29.994Z,-0.49
2019-02-04T09:22:38.036Z,-0.49
2019-02-04T09:23:46.089Z,-0.43
2019-02-04T09:24:54.139Z,-0.31
2019-02-04T09:26:02.178Z,-0.34
2019-02-04T09:27:10.258Z,-0.28
2019-02-04T09:28:18.292Z,-0.31
2019-02-04T09:29:26.415Z,-0.40
2019-02-04T09:30:34.423Z,-0.42
2019-02-04T09:31:42.462Z,-0.29
2019-02-04T09:32:50.513Z,-0.31
2019-02-04T09:33:58.569Z,-0.23
2019-02-04T09:35:07.071Z,-0.18
2019-02-04T09:36:14.993Z,-0.08
2019-02-04T09:37:22.709Z,-0.04
2019-02-04T09:38:30.788Z,0.11
2019-02-04T09:39:38.858Z,-0.04
2019-02-04T09:40:47.064Z,-0.23
2019-02-04T09:41:55.249Z,-0.26
2019-02-04T09:43:03.440Z,-0.25
2019-02-04T09:44:11.113Z,-0.23
2019-02-04T09:45:19.088Z,-0.11
2019-02-04T09:46:27.171Z,0.04
2019-02-04T09:47:35.539Z,0.10
2019-02-04T09:48:43.359Z,0.13
2019-02-04T09:49:51.638Z,0.21
2019-02-04T09:50:59.942Z,0.28
2019-02-04T09:52:07.424Z,0.39
2019-02-04T09:53:15.569Z,0.42
2019-02-04T09:54:23.515Z,0.62
2019-02-04T09:55:31.626Z,0.46
2019-02-04T09:56:39.625Z,0.42
2019-02-04T09:57:47.659Z,0.49
2019-02-04T09:58:56.079Z,0.42
2019-02-04T10:00:03.796Z,0.53
2019-02-04T10:01:11.848Z,0.60
2019-02-04T10:02:19.893Z,0.70
2019-02-04T10:03:27.946Z,0.84
2019-02-04T10:04:35.988Z,1.06
2019-02-04T10:05:44.034Z,1.12
2019-02-04T10:06:52.122Z,1.26
2019-02-04T10:08:00.143Z,1.11
2019-02-04T10:09:08.224Z,1.12
2019-02-04T10:10:16.368Z,1.22
2019-02-04T10:11:24.384Z,1.26
2019-02-04T10:12:32.409Z,1.18
2019-02-04T10:13:40.465Z,1.30
2019-02-04T10:14:48.480Z,1.30
2019-02-04T10:15:57.239Z,1.16
2019-02-04T10:17:05.213Z,1.23
2019-02-04T10:18:12.703Z,1.29
2019-02-04T10:19:20.743Z,1.11
2019-02-04T10:20:33.752Z,1.08
2019-02-04T10:21:36.820Z,1.15
2019-02-04T10:22:44.876Z,1.41
2019-02-04T10:23:52.951Z,1.45
2019-02-04T10:25:00.973Z,1.66
2019-02-04T10:26:09.016Z,1.69
2019-02-04T10:27:17.075Z,1.90
2019-02-04T10:28:25.189Z,1.98
2019-02-04T10:29:33.199Z,2.03
2019-02-04T10:30:41.287Z,2.16
2019-02-04T10:31:49.435Z,2.17
2019-02-04T10:32:57.346Z,2.35
2019-02-04T10:34:05.486Z,2.48
2019-02-04T10:35:16.732Z,2.54
2019-02-04T10:36:21.620Z,2.25
2019-02-04T10:37:29.580Z,2.35
2019-02-04T10:38:37.680Z,2.39
2019-02-04T10:39:45.700Z,2.49
2019-02-04T10:40:53.737Z,2.54
2019-02-04T10:42:01.788Z,2.59
2019-02-04T10:43:09.877Z,2.72
2019-02-04T10:44:17.924Z,2.60
2019-02-04T10:45:25.985Z,2.74
2019-02-04T10:46:34.024Z,2.71
2019-02-04T10:47:42.179Z,2.48
2019-02-04T10:48:50.170Z,2.64
2019-02-04T10:49:58.179Z,2.69
2019-02-04T10:51:06.265Z,2.49
2019-02-04T10:52:14.340Z,2.52
2019-02-04T10:53:22.444Z,2.46
2019-02-04T10:54:30.412Z,2.57
2019-02-04T10:55:38.489Z,2.64
2019-02-04T10:56:46.517Z,2.34
2019-02-04T10:57:54.580Z,2.14
2019-02-04T10:59:02.615Z,2.09
2019-02-04T11:00:10.676Z,2.06
2019-02-04T11:01:18.753Z,1.80
2019-02-04T11:02:26.817Z,1.83
2019-02-04T11:03:34.866Z,1.86
2019-02-04T11:04:42.905Z,2.05
2019-02-04T11:05:50.986Z,1.86
2019-02-04T11:06:59.028Z,1.86
2019-02-04T11:08:07.051Z,1.81
2019-02-04T11:09:15.153Z,2.09
2019-02-04T11:10:23.187Z,2.16
2019-02-04T11:11:31.239Z,2.23
2019-02-04T11:12:39.290Z,2.25
2019-02-04T11:13:47.340Z,2.24
2019-02-04T11:14:55.761Z,2.46
2019-02-04T11:16:03.504Z,2.24
2019-02-04T11:17:11.769Z,1.91
2019-02-04T11:18:19.621Z,1.99
2019-02-04T11:19:27.633Z,2.06
2019-02-04T11:20:35.779Z,1.99
2019-02-04T11:21:43.717Z,2.23
2019-02-04T11:22:51.790Z,2.21
2019-02-04T11:23:59.920Z,2.34
2019-02-04T11:25:07.909Z,2.41
2019-02-04T11:26:15.962Z,2.48
2019-02-04T11:27:24.024Z,2.20
2019-02-04T11:28:32.070Z,2.20
2019-02-04T11:29:40.145Z,2.21
2019-02-04T11:30:48.172Z,2.23
2019-02-04T11:31:56.243Z,2.25
2019-02-04T11:33:04.293Z,2.38
2019-02-04T11:34:12.341Z,2.42
2019-02-04T11:35:20.438Z,2.46
2019-02-04T11:36:28.485Z,2.59
2019-02-04T11:37:36.565Z,2.59
2019-02-04T11:38:44.568Z,2.69
2019-02-04T11:39:52.632Z,2.64
2019-02-04T11:41:00.694Z,2.71
2019-02-04T11:42:08.747Z,2.54
2019-02-04T11:43:16.789Z,2.75
2019-02-04T11:44:24.861Z,2.61
2019-02-04T11:45:32.898Z,2.79
2019-02-04T11:46:40.932Z,2.71
2019-02-04T11:47:49.013Z,2.78
2019-02-04T11:48:57.055Z,2.92
2019-02-04T11:50:05.100Z,2.87
2019-02-04T11:51:13.147Z,2.78
2019-02-04T11:52:21.184Z,2.57
2019-02-04T11:53:32.684Z,2.56
2019-02-04T11:54:37.630Z,2.72
2019-02-04T11:55:45.391Z,2.66
2019-02-04T11:56:53.443Z,2.74
2019-02-04T11:58:01.750Z,2.75
2019-02-04T11:59:09.598Z,2.77
2019-02-04T12:00:17.606Z,2.72
2019-02-04T12:01:25.670Z,2.74
2019-02-04T12:02:34.728Z,2.56
2019-02-04T12:03:41.763Z,2.67
2019-02-04T12:04:49.816Z,2.17
2019-02-04T12:05:57.860Z,2.06
2019-02-04T12:07:06.004Z,2.07
2019-02-04T12:08:14.017Z,1.93
2019-02-04T12:09:22.073Z,2.02
2019-02-04T12:10:30.108Z,1.88
2019-02-04T12:11:38.152Z,1.93
2019-02-04T12:12:46.210Z,1.95
2019-02-04T12:13:54.242Z,2.06
2019-02-04T12:15:02.328Z,2.17
2019-02-04T12:16:10.412Z,2.39
2019-02-04T12:17:18.458Z,2.48
2019-02-04T12:18:26.476Z,2.53
2019-02-04T12:19:34.544Z,2.67
2019-02-04T12:20:42.882Z,2.75
2019-02-04T12:21:50.644Z,2.81
2019-02-04T12:22:58.713Z,2.75
2019-02-04T12:24:07.007Z,2.79
2019-02-04T12:25:15.286Z,2.57
2019-02-04T12:26:22.860Z,2.41
2019-02-04T12:27:32.211Z,2.30
2019-02-04T12:28:38.985Z,2.20
2019-02-04T12:29:47.029Z,2.28
2019-02-04T12:30:55.569Z,2.39
2019-02-04T12:32:03.156Z,2.27
2019-02-04T12:33:11.429Z,2.06
2019-02-04T12:34:19.589Z,2.18
2019-02-04T12:35:27.296Z,2.18
2019-02-04T12:36:35.701Z,2.21
2019-02-04T12:37:43.587Z,2.09
2019-02-04T12:38:51.468Z,1.93
2019-02-04T12:39:59.542Z,2.03
2019-02-04T12:41:07.584Z,2.06
2019-02-04T12:42:15.598Z,2.00
2019-02-04T12:43:23.684Z,1.99
2019-02-04T12:44:31.798Z,1.98
2019-02-04T12:45:39.795Z,1.95
2019-02-04T12:46:47.876Z,1.87
2019-02-04T12:47:55.882Z,1.99
2019-02-04T12:49:03.985Z,1.79
2019-02-04T12:50:12.026Z,1.86
2019-02-04T12:51:20.051Z,1.95
2019-02-04T12:52:28.120Z,2.07
2019-02-04T12:53:36.234Z,2.21
2019-02-04T12:54:44.241Z,2.25
2019-02-04T12:55:52.284Z,2.27
2019-02-04T12:57:00.411Z,2.38
2019-02-04T12:58:08.398Z,2.39
2019-02-04T12:59:16.426Z,2.45
2019-02-04T13:00:24.485Z,2.31
2019-02-04T13:01:32.555Z,2.28
2019-02-04T13:02:40.699Z,2.20
2019-02-04T13:03:48.669Z,2.28
2019-02-04T13:04:57.103Z,2.41
2019-02-04T13:06:04.773Z,2.42
2019-02-04T13:07:12.843Z,2.31
2019-02-04T13:08:20.884Z,2.38
2019-02-04T13:09:28.936Z,2.30
2019-02-04T13:10:37.000Z,2.00
2019-02-04T13:11:45.199Z,1.95
2019-02-04T13:12:53.118Z,2.07
2019-02-04T13:14:01.831Z,2.07
2019-02-04T13:15:09.203Z,2.07
2019-02-04T13:16:17.274Z,1.91
2019-02-04T13:17:26.863Z,1.80
2019-02-04T13:18:33.377Z,1.77
2019-02-04T13:19:41.411Z,1.65
2019-02-04T13:20:49.462Z,1.84
2019-02-04T13:21:57.555Z,1.99
2019-02-04T13:23:05.596Z,1.95
2019-02-04T13:24:13.641Z,2.00
2019-02-04T13:25:21.713Z,2.05
2019-02-04T13:26:29.777Z,1.93
2019-02-04T13:27:37.825Z,2.03
2019-02-04T13:28:45.885Z,2.02
2019-02-04T13:29:53.987Z,2.05
2019-02-04T13:31:02.012Z,2.18
2019-02-04T13:32:10.059Z,2.12
2019-02-04T13:33:18.084Z,2.10
2019-02-04T13:34:26.141Z,2.03
2019-02-04T13:35:34.164Z,2.03
2019-02-04T13:36:42.249Z,2.06
2019-02-04T13:37:50.311Z,2.12
2019-02-04T13:38:58.368Z,2.23
2019-02-04T13:40:06.434Z,2.41
2019-02-04T13:41:14.471Z,2.35
2019-02-04T13:42:22.519Z,2.43
2019-02-04T13:43:30.582Z,2.35
2019-02-04T13:44:38.648Z,2.16
2019-02-04T13:45:46.705Z,2.21
2019-02-04T13:46:54.749Z,2.34
2019-02-04T13:48:02.801Z,2.30
2019-02-04T13:49:10.851Z,2.20
2019-02-04T13:50:18.904Z,2.28
2019-02-04T13:51:26.962Z,2.05
2019-02-04T13:52:35.480Z,1.84
2019-02-04T13:53:43.358Z,2.03
2019-02-04T13:54:51.129Z,1.98
2019-02-04T13:55:59.302Z,1.99
2019-02-04T13:57:07.232Z,2.00
2019-02-04T13:58:15.409Z,1.95
2019-02-04T13:59:23.734Z,1.95
2019-02-04T14:00:31.423Z,1.86
2019-02-04T14:01:39.462Z,1.95
2019-02-04T14:02:58.412Z,1.93
2019-02-04T14:03:55.575Z,1.88
2019-02-04T14:05:03.617Z,2.07
2019-02-04T14:06:11.706Z,1.93
2019-02-04T14:07:21.393Z,2.03
2019-02-04T14:08:28.111Z,2.05
2019-02-04T14:09:36.136Z,1.81
2019-02-04T14:10:46.059Z,1.68
2019-02-04T14:11:51.925Z,1.77
2019-02-04T14:13:00.000Z,1.72
2019-02-04T14:14:08.068Z,1.70
2019-02-04T14:15:16.102Z,1.68
2019-02-04T14:16:24.205Z,1.73
2019-02-04T14:17:32.210Z,1.68
2019-02-04T14:18:40.310Z,1.60
2019-02-04T14:19:48.605Z,1.62
2019-02-04T14:20:56.388Z,1.51
2019-02-04T14:22:09.119Z,1.51
2019-02-04T14:23:12.478Z,1.50
2019-02-04T14:24:20.549Z,1.51
2019-02-04T14:25:28.640Z,1.37
2019-02-04T14:26:36.645Z,1.32
2019-02-04T14:27:44.698Z,1.37
2019-02-04T14:28:52.784Z,1.40
2019-02-04T14:30:00.824Z,1.26
2019-02-04T14:31:08.867Z,1.29
2019-02-04T14:32:16.914Z,1.33
2019-02-04T14:33:24.958Z,1.37
2019-02-04T14:34:33.047Z,1.26
2019-02-04T14:35:41.094Z,1.33
2019-02-04T14:36:49.129Z,1.22
2019-02-04T14:37:57.372Z,1.29
2019-02-04T14:39:05.241Z,1.30
2019-02-04T14:40:18.258Z,1.26
2019-02-04T14:41:21.642Z,1.08
2019-02-04T14:42:29.726Z,1.09
2019-02-04T14:43:37.672Z,1.04
2019-02-04T14:44:45.501Z,1.11
2019-02-04T14:45:53.597Z,1.04